Time;durP1;ratioP1;P1;durP2;ratioP2;P2;SDS_P1;SDS_P2;PMS_P1;PMS_P2;Temp;Humidity;BMP_temperature;BMP_pressure;BME280_temperature;BME280_humidity;BME280_pressure;Samples;Min_cycle;Max_cycle;Signal;HPM_P1;HPM_P2
2023/09/06 00:01:19;;;;;;;2.50;2.20;;;20.60;84.40;;;;;;5081985;28;20430;-71
2023/09/06 00:03:45;;;;;;;2.50;1.95;;;20.60;85.00;;;;;;5081513;28;20422;-70
2023/09/06 00:06:12;;;;;;;3.20;2.00;;;20.50;85.20;;;;;;5083950;28;20425;-70
2023/09/06 00:08:40;;;;;;;2.75;2.00;;;20.50;85.10;;;;;;5078792;28;20590;-70
2023/09/06 00:11:07;;;;;;;2.65;2.00;;;20.50;86.30;;;;;;5082906;28;20449;-70
2023/09/06 00:13:35;;;;;;;3.10;2.00;;;20.50;86.40;;;;;;5081906;28;20824;-71
2023/09/06 00:16:03;;;;;;;2.10;1.70;;;20.50;86.40;;;;;;5082982;28;20500;-69
2023/09/06 00:18:30;;;;;;;2.53;2.20;;;20.40;85.70;;;;;;5083512;28;20833;-70
2023/09/06 00:20:57;;;;;;;3.63;2.67;;;20.40;86.50;;;;;;5084198;28;20875;-70
2023/09/06 00:23:26;;;;;;;3.50;2.30;;;20.40;87.60;;;;;;5082253;28;20429;-70
2023/09/06 00:25:54;;;;;;;2.80;2.37;;;20.40;87.90;;;;;;5080071;28;20522;-70
2023/09/06 00:28:23;;;;;;;4.20;2.60;;;20.30;86.70;;;;;;5083217;28;20421;-70
2023/09/06 00:30:51;;;;;;;3.67;2.20;;;20.30;88.00;;;;;;5082396;28;20860;-70
2023/09/06 00:33:18;;;;;;;2.70;2.10;;;20.30;87.10;;;;;;5088168;28;20429;-70
2023/09/06 00:35:44;;;;;;;2.97;2.30;;;20.20;86.60;;;;;;5086735;28;20544;-70
2023/09/06 00:38:11;;;;;;;3.38;2.20;;;20.20;87.90;;;;;;5087520;28;20433;-70
2023/09/06 00:40:40;;;;;;;2.97;2.05;;;20.20;87.80;;;;;;5087797;28;20896;-70
2023/09/06 00:43:09;;;;;;;3.00;2.47;;;20.20;88.10;;;;;;5087699;28;20449;-70
2023/09/06 00:45:43;;;;;;;2.15;1.95;;;20.20;87.80;;;;;;5087684;28;20414;-70
2023/09/06 00:48:12;;;;;;;2.45;2.10;;;20.10;88.40;;;;;;5088161;28;20449;-70
2023/09/06 00:50:41;;;;;;;2.35;2.00;;;20.10;88.20;;;;;;5088150;28;20434;-70
2023/09/06 00:53:09;;;;;;;3.10;2.10;;;20.10;88.80;;;;;;5084202;28;20772;-69
2023/09/06 00:55:37;;;;;;;2.83;2.20;;;20.10;90.00;;;;;;5086045;28;20429;-69
2023/09/06 00:58:04;;;;;;;2.90;2.10;;;20.00;89.50;;;;;;5086608;28;20420;-69
2023/09/06 01:00:33;;;;;;;2.92;2.63;;;20.00;90.00;;;;;;5084292;28;20407;-70
2023/09/06 01:02:59;;;;;;;3.27;2.80;;;20.00;90.60;;;;;;5087933;28;20414;-70
2023/09/06 01:05:32;;;;;;;2.70;2.40;;;20.00;90.60;;;;;;5086832;28;20770;-70
2023/09/06 01:08:04;;;;;;;2.50;2.20;;;19.90;90.10;;;;;;5087306;28;20907;-70
2023/09/06 01:10:30;;;;;;;3.13;2.63;;;19.90;90.70;;;;;;5087024;28;20777;-70
2023/09/06 01:12:57;;;;;;;3.53;2.78;;;19.90;90.90;;;;;;5087593;28;20413;-70
2023/09/06 01:15:24;;;;;;;3.07;2.50;;;19.90;91.00;;;;;;5086052;28;20708;-69
2023/09/06 01:17:53;;;;;;;2.63;2.30;;;19.90;91.00;;;;;;5080301;28;20941;-70
2023/09/06 01:20:33;;;;;;;2.60;2.40;;;19.80;91.10;;;;;;5085135;28;20440;-70
2023/09/06 01:23:10;;;;;;;2.60;2.40;;;19.80;91.70;;;;;;5081204;28;20845;-70
2023/09/06 01:25:38;;;;;;;2.58;2.30;;;19.80;91.30;;;;;;5083773;28;20499;-70
2023/09/06 01:28:06;;;;;;;3.63;2.42;;;19.80;91.60;;;;;;5085665;28;20872;-70
2023/09/06 01:30:32;;;;;;;3.17;2.40;;;19.80;91.30;;;;;;5086100;28;20765;-70
2023/09/06 01:32:59;;;;;;;3.10;2.40;;;19.70;91.10;;;;;;5084114;28;20807;-70
2023/09/06 01:35:26;;;;;;;2.80;2.50;;;19.70;91.40;;;;;;5080534;28;20444;-70
2023/09/06 01:37:52;;;;;;;2.85;2.60;;;19.70;91.40;;;;;;5078891;28;20440;-69
2023/09/06 01:40:20;;;;;;;3.70;2.70;;;19.60;91.70;;;;;;5085796;28;21315;-70
2023/09/06 01:42:48;;;;;;;3.20;2.67;;;19.60;92.20;;;;;;5084676;28;20418;-70
2023/09/06 01:45:17;;;;;;;2.80;2.50;;;19.60;92.70;;;;;;5083332;28;20521;-70
2023/09/06 01:47:45;;;;;;;3.53;2.75;;;19.60;92.80;;;;;;5085430;28;20482;-70
2023/09/06 01:50:12;;;;;;;4.57;2.70;;;19.50;92.90;;;;;;5085482;28;20475;-69
2023/09/06 01:52:40;;;;;;;2.60;2.40;;;19.50;92.70;;;;;;5082239;28;20414;-69
2023/09/06 01:55:07;;;;;;;4.45;2.40;;;19.50;92.70;;;;;;5079218;28;20426;-70
2023/09/06 01:57:34;;;;;;;2.58;2.08;;;19.40;92.20;;;;;;5083717;28;20433;-70
2023/09/06 02:00:18;;;;;;;2.63;2.38;;;19.40;92.40;;;;;;5086981;28;20800;-69
2023/09/06 02:02:45;;;;;;;3.13;2.30;;;19.30;91.80;;;;;;5084724;28;20449;-70
2023/09/06 02:05:12;;;;;;;3.50;2.40;;;19.30;91.70;;;;;;5083307;28;20429;-70
2023/09/06 02:07:39;;;;;;;3.80;2.20;;;19.20;91.90;;;;;;5085328;28;20418;-70
2023/09/06 02:10:08;;;;;;;3.40;2.33;;;19.20;91.90;;;;;;5082877;28;20495;-70
2023/09/06 02:12:35;;;;;;;2.60;2.40;;;19.20;92.20;;;;;;5085192;28;20422;-70
2023/09/06 02:15:04;;;;;;;2.40;2.20;;;19.20;91.80;;;;;;5086169;28;20410;-70
2023/09/06 02:17:31;;;;;;;2.90;2.37;;;19.20;92.00;;;;;;5086995;28;20503;-70
2023/09/06 02:20:01;;;;;;;2.42;2.22;;;19.20;92.20;;;;;;5085256;28;20529;-70
2023/09/06 02:22:27;;;;;;;2.40;2.20;;;19.10;92.80;;;;;;5082566;28;20537;-70
2023/09/06 02:24:54;;;;;;;2.80;2.38;;;19.10;93.00;;;;;;5085157;28;20418;-70
2023/09/06 02:27:21;;;;;;;6.88;2.60;;;19.10;93.30;;;;;;5086011;28;20545;-70
2023/09/06 02:29:51;;;;;;;2.83;2.20;;;19.10;92.90;;;;;;5086186;28;20413;-70
2023/09/06 02:32:19;;;;;;;2.58;2.38;;;19.10;93.40;;;;;;5085467;28;20440;-70
2023/09/06 02:34:47;;;;;;;2.53;2.10;;;19.10;92.40;;;;;;5082866;28;20429;-70
2023/09/06 02:37:13;;;;;;;2.70;2.22;;;19.10;92.40;;;;;;5081958;28;20434;-70
2023/09/06 02:39:40;;;;;;;3.38;2.40;;;19.00;93.30;;;;;;5079955;28;20546;-69
2023/09/06 02:42:07;;;;;;;3.00;2.40;;;19.00;92.90;;;;;;5085419;28;20535;-69
2023/09/06 02:44:34;;;;;;;2.50;2.30;;;19.00;93.40;;;;;;5081811;28;20423;-69
2023/09/06 02:47:03;;;;;;;3.33;2.30;;;19.00;93.10;;;;;;5083957;28;20414;-69
2023/09/06 02:49:32;;;;;;;3.30;2.00;;;19.00;93.40;;;;;;5080490;28;20753;-70
2023/09/06 02:51:58;;;;;;;2.90;2.38;;;19.00;93.40;;;;;;5083644;28;20486;-68
2023/09/06 02:54:26;;;;;;;3.30;2.40;;;19.00;93.60;;;;;;5083842;28;20934;-70
2023/09/06 02:56:56;;;;;;;2.88;2.55;;;19.00;93.80;;;;;;5084785;28;20491;-69
2023/09/06 02:59:23;;;;;;;2.30;2.10;;;19.00;93.70;;;;;;5085022;28;20422;-70
2023/09/06 03:01:50;;;;;;;2.90;2.60;;;18.90;94.20;;;;;;5084017;28;20522;-69
2023/09/06 03:04:17;;;;;;;2.53;2.30;;;19.00;93.90;;;;;;5083367;28;20437;-70
2023/09/06 03:06:45;;;;;;;2.80;2.30;;;18.90;94.30;;;;;;5082424;28;20432;-70
2023/09/06 03:09:12;;;;;;;3.00;2.67;;;18.90;94.40;;;;;;5083625;28;20645;-70
2023/09/06 03:11:38;;;;;;;2.92;2.22;;;18.90;94.40;;;;;;5084909;28;20440;-70
2023/09/06 03:14:05;;;;;;;2.55;2.13;;;18.80;93.80;;;;;;5084588;28;20410;-70
2023/09/06 03:16:38;;;;;;;2.40;2.20;;;18.80;93.90;;;;;;5083060;28;20418;-70
2023/09/06 03:19:09;;;;;;;3.80;2.40;;;18.80;94.10;;;;;;5082133;28;20519;-70
2023/09/06 03:21:36;;;;;;;3.42;2.38;;;18.80;94.00;;;;;;5082520;28;20447;-70
2023/09/06 03:24:11;;;;;;;2.50;2.30;;;18.80;93.70;;;;;;5084054;28;20414;-70
2023/09/06 03:26:39;;;;;;;2.28;1.98;;;18.80;94.60;;;;;;5085292;28;20410;-70
2023/09/06 03:29:10;;;;;;;2.97;2.03;;;18.70;94.50;;;;;;5083403;28;20421;-70
2023/09/06 03:31:42;;;;;;;2.78;2.30;;;18.70;94.60;;;;;;5081030;28;20778;-70
2023/09/06 03:34:13;;;;;;;3.10;2.33;;;18.80;94.40;;;;;;5081036;28;20432;-69
2023/09/06 03:36:40;;;;;;;2.90;2.60;;;18.70;94.00;;;;;;5081842;28;20926;-70
2023/09/06 03:39:13;;;;;;;3.10;2.13;;;18.60;93.90;;;;;;5082118;28;20430;-70
2023/09/06 03:41:39;;;;;;;2.72;2.50;;;18.60;93.70;;;;;;5083046;28;20414;-69
2023/09/06 03:44:06;;;;;;;2.50;2.30;;;18.60;93.80;;;;;;5083292;28;20429;-69
2023/09/06 03:46:34;;;;;;;3.55;2.92;;;18.60;93.70;;;;;;5083880;28;20440;-70
2023/09/06 03:49:05;;;;;;;3.17;2.33;;;18.60;94.20;;;;;;5082515;28;20436;-70
2023/09/06 03:51:32;;;;;;;3.20;2.60;;;18.60;93.80;;;;;;5084986;28;20505;-69
2023/09/06 03:54:00;;;;;;;4.30;2.35;;;18.50;93.70;;;;;;5084500;28;20433;-69
2023/09/06 03:56:28;;;;;;;2.88;2.22;;;18.50;93.70;;;;;;5085559;28;20560;-69
2023/09/06 03:58:54;;;;;;;3.00;2.33;;;18.50;93.90;;;;;;5082945;28;20429;-70
2023/09/06 04:01:25;;;;;;;3.25;2.50;;;18.50;94.20;;;;;;5084142;28;20814;-71
2023/09/06 04:03:52;;;;;;;2.88;2.40;;;18.50;95.00;;;;;;5082423;28;20997;-71
2023/09/06 04:06:19;;;;;;;3.40;2.35;;;18.50;95.00;;;;;;5084232;28;20417;-69
2023/09/06 04:08:46;;;;;;;4.20;2.80;;;18.50;94.80;;;;;;5083920;28;20508;-69
2023/09/06 04:11:12;;;;;;;4.20;2.90;;;18.50;94.90;;;;;;5077880;28;20476;-69
2023/09/06 04:13:42;;;;;;;4.80;2.80;;;18.40;94.40;;;;;;5076822;28;20519;-69
2023/09/06 04:16:09;;;;;;;3.05;2.80;;;18.40;94.90;;;;;;5082633;28;20426;-69
2023/09/06 04:18:36;;;;;;;3.42;2.90;;;18.40;95.00;;;;;;5082697;28;20880;-70
2023/09/06 04:21:08;;;;;;;3.58;2.85;;;18.40;95.30;;;;;;5084276;28;20410;-69
2023/09/06 04:23:36;;;;;;;3.10;2.80;;;18.40;95.70;;;;;;5080880;28;20437;-70
2023/09/06 04:26:04;;;;;;;3.60;2.90;;;18.40;95.60;;;;;;5083397;28;20426;-69
2023/09/06 04:28:31;;;;;;;3.83;2.70;;;18.30;95.90;;;;;;5078277;28;20824;-70
2023/09/06 04:31:00;;;;;;;3.47;2.70;;;18.30;95.80;;;;;;5082955;28;20448;-69
2023/09/06 04:33:26;;;;;;;3.30;3.00;;;18.30;96.40;;;;;;5078982;28;20521;-69
2023/09/06 04:35:53;;;;;;;3.13;2.83;;;18.30;96.60;;;;;;5083083;28;20428;-74
2023/09/06 04:38:24;;;;;;;3.03;2.50;;;18.30;96.60;;;;;;5082145;28;20477;-75
2023/09/06 04:40:51;;;;;;;3.80;2.42;;;18.20;95.90;;;;;;5081505;28;20452;-75
2023/09/06 04:43:19;;;;;;;3.60;2.78;;;18.00;96.30;;;;;;5078234;28;20422;-76
2023/09/06 04:45:47;;;;;;;3.20;2.80;;;18.00;96.80;;;;;;5082545;28;20479;-76
2023/09/06 04:48:16;;;;;;;2.83;2.63;;;17.90;96.70;;;;;;5083022;28;20420;-76
2023/09/06 04:50:44;;;;;;;3.03;2.72;;;17.90;96.70;;;;;;5081372;28;20935;-77
2023/09/06 04:53:12;;;;;;;3.70;2.67;;;17.90;97.00;;;;;;5081414;28;20417;-76
2023/09/06 04:55:40;;;;;;;3.63;2.90;;;17.90;97.30;;;;;;5081841;28;20414;-76
2023/09/06 04:58:08;;;;;;;4.35;3.00;;;17.90;97.40;;;;;;5080560;28;20525;-76
2023/09/06 05:00:38;;;;;;;4.03;3.10;;;17.80;97.70;;;;;;5082685;28;20673;-69
2023/09/06 05:03:08;;;;;;;3.33;3.03;;;17.80;98.10;;;;;;5081967;28;20433;-71
2023/09/06 05:05:36;;;;;;;3.10;2.80;;;17.80;99.10;;;;;;5080244;28;20481;-70
2023/09/06 05:08:04;;;;;;;3.25;2.95;;;17.90;99.30;;;;;;5082845;28;20413;-70
2023/09/06 05:10:31;;;;;;;4.68;3.10;;;17.90;99.10;;;;;;5079720;28;20425;-71
2023/09/06 05:12:57;;;;;;;4.32;3.40;;;18.00;98.60;;;;;;5086675;28;20448;-71
2023/09/06 05:15:24;;;;;;;5.57;3.67;;;18.00;98.60;;;;;;5082423;28;20963;-70
2023/09/06 05:17:51;;;;;;;3.95;2.83;;;18.00;98.50;;;;;;5084858;28;20459;-71
2023/09/06 05:20:27;;;;;;;4.82;3.42;;;18.00;98.20;;;;;;5085593;28;20438;-71
2023/09/06 05:22:56;;;;;;;5.55;3.90;;;18.00;98.80;;;;;;5083333;28;20874;-72
2023/09/06 05:25:24;;;;;;;4.97;3.78;;;18.00;98.50;;;;;;5085955;28;20655;-71
2023/09/06 05:27:52;;;;;;;7.60;4.30;;;18.00;98.20;;;;;;5085698;28;20433;-71
2023/09/06 05:30:19;;;;;;;7.05;4.20;;;18.00;97.80;;;;;;5086179;28;20436;-71
2023/09/06 05:32:45;;;;;;;8.60;4.47;;;18.00;98.10;;;;;;5084199;28;20421;-71
2023/09/06 05:35:12;;;;;;;5.32;4.28;;;18.00;98.00;;;;;;5080722;28;20452;-72
2023/09/06 05:37:39;;;;;;;10.63;5.30;;;18.00;97.80;;;;;;5084226;28;20487;-71
2023/09/06 05:40:09;;;;;;;9.55;4.80;;;18.00;98.10;;;;;;5086511;28;20737;-72
2023/09/06 05:42:37;;;;;;;8.45;4.85;;;18.00;97.90;;;;;;5084385;28;20854;-70
2023/09/06 05:45:04;;;;;;;7.90;4.00;;;18.00;97.60;;;;;;5085891;28;20509;-71
2023/09/06 05:47:33;;;;;;;8.68;5.28;;;18.00;97.10;;;;;;5082919;28;20536;-71
2023/09/06 05:49:59;;;;;;;8.82;4.70;;;18.00;97.20;;;;;;5081283;28;20449;-71
2023/09/06 05:52:28;;;;;;;6.68;4.28;;;18.00;96.80;;;;;;5086073;28;20445;-72
2023/09/06 05:54:55;;;;;;;4.73;3.30;;;18.00;97.20;;;;;;5083423;28;20421;-72
2023/09/06 05:57:23;;;;;;;6.17;3.43;;;18.00;97.30;;;;;;5081825;28;20422;-71
2023/09/06 05:59:50;;;;;;;4.78;3.58;;;18.10;97.40;;;;;;5076999;28;20422;-71
2023/09/06 06:02:17;;;;;;;6.38;3.92;;;18.00;96.80;;;;;;5075257;28;20470;-71
2023/09/06 06:04:45;;;;;;;7.32;4.70;;;18.10;96.90;;;;;;5083084;28;20433;-71
2023/09/06 06:07:12;;;;;;;7.13;3.88;;;18.10;96.60;;;;;;5077963;28;20498;-71
2023/09/06 06:09:39;;;;;;;5.07;3.60;;;18.10;97.00;;;;;;5077202;28;20436;-71
2023/09/06 06:12:06;;;;;;;6.35;3.70;;;18.20;97.10;;;;;;5079143;28;20446;-71
2023/09/06 06:14:36;;;;;;;6.85;3.65;;;18.10;96.30;;;;;;5081772;28;20425;-71
2023/09/06 06:17:03;;;;;;;6.70;4.50;;;18.20;96.70;;;;;;5075744;28;20803;-70
2023/09/06 06:19:30;;;;;;;4.38;3.53;;;18.20;96.50;;;;;;5084333;28;20429;-70
2023/09/06 06:21:57;;;;;;;5.05;3.60;;;18.20;96.00;;;;;;5070246;28;20891;-70
2023/09/06 06:24:24;;;;;;;3.70;3.30;;;18.20;95.90;;;;;;5076696;28;20450;-70
2023/09/06 06:26:51;;;;;;;5.32;3.72;;;18.30;95.90;;;;;;5080867;28;21064;-71
2023/09/06 06:29:17;;;;;;;5.25;3.40;;;18.30;95.60;;;;;;5082748;28;20514;-71
2023/09/06 06:31:46;;;;;;;5.00;3.50;;;18.30;95.40;;;;;;5083352;28;20448;-71
2023/09/06 06:34:14;;;;;;;5.60;3.30;;;18.40;95.40;;;;;;5082493;28;20429;-71
2023/09/06 06:36:40;;;;;;;5.53;3.47;;;18.50;95.70;;;;;;5081847;28;20460;-71
2023/09/06 06:39:10;;;;;;;3.88;2.92;;;18.50;95.30;;;;;;5079666;28;20422;-72
2023/09/06 06:41:36;;;;;;;5.43;4.00;;;18.60;94.90;;;;;;5080539;28;20422;-71
2023/09/06 06:44:03;;;;;;;6.85;4.20;;;18.70;94.50;;;;;;5079991;28;20430;-71
2023/09/06 06:46:32;;;;;;;6.00;4.25;;;18.80;94.40;;;;;;5075748;28;20845;-71
2023/09/06 06:49:04;;;;;;;5.43;3.60;;;18.80;94.50;;;;;;5078790;28;20452;-71
2023/09/06 06:51:35;;;;;;;5.40;3.70;;;18.90;94.20;;;;;;5083388;28;20432;-71
2023/09/06 06:54:02;;;;;;;4.30;3.35;;;19.00;94.30;;;;;;5085017;28;20869;-71
2023/09/06 06:56:29;;;;;;;5.53;2.95;;;19.10;93.80;;;;;;5079872;28;20437;-71
2023/09/06 06:58:56;;;;;;;4.10;3.03;;;19.20;93.40;;;;;;5070144;28;20448;-71
2023/09/06 07:01:24;;;;;;;3.15;2.83;;;19.30;92.70;;;;;;5076626;28;20434;-70
2023/09/06 07:03:50;;;;;;;4.10;3.10;;;19.40;92.60;;;;;;5074805;28;20600;-71
2023/09/06 07:06:18;;;;;;;3.75;3.03;;;19.50;92.10;;;;;;5076680;28;20892;-71
2023/09/06 07:08:45;;;;;;;5.10;2.97;;;19.60;91.90;;;;;;5083878;28;20410;-73
2023/09/06 07:11:12;;;;;;;4.90;3.60;;;19.70;91.50;;;;;;5080549;28;20836;-73
2023/09/06 07:13:39;;;;;;;5.68;3.05;;;19.80;91.20;;;;;;5083893;28;20430;-71
2023/09/06 07:16:06;;;;;;;6.95;3.90;;;19.90;90.90;;;;;;5080676;28;20462;-73
2023/09/06 07:18:34;;;;;;;5.03;3.90;;;20.00;90.90;;;;;;5082643;28;20445;-72
2023/09/06 07:21:01;;;;;;;4.30;3.37;;;20.10;90.30;;;;;;5084006;28;20713;-71
2023/09/06 07:23:29;;;;;;;4.00;3.03;;;20.20;89.90;;;;;;5083630;28;20413;-70
2023/09/06 07:25:56;;;;;;;6.82;3.08;;;20.30;88.90;;;;;;5083379;28;20508;-71
2023/09/06 07:28:23;;;;;;;3.50;3.08;;;20.40;88.30;;;;;;5083148;28;20800;-72
2023/09/06 07:30:50;;;;;;;3.00;2.70;;;20.50;87.30;;;;;;5083419;28;20440;-72
2023/09/06 07:33:17;;;;;;;2.75;2.40;;;20.60;87.00;;;;;;5082009;28;20430;-72
2023/09/06 07:35:44;;;;;;;3.58;2.50;;;20.70;85.90;;;;;;5079556;28;20434;-73
2023/09/06 07:38:11;;;;;;;3.30;2.63;;;20.90;85.40;;;;;;5082054;28;20432;-73
2023/09/06 07:40:39;;;;;;;2.95;2.50;;;21.00;84.70;;;;;;5078789;28;20601;-72
2023/09/06 07:43:06;;;;;;;4.47;2.75;;;21.20;84.10;;;;;;5080842;28;20427;-72
2023/09/06 07:45:33;;;;;;;2.60;2.40;;;21.30;83.30;;;;;;5084508;28;20735;-73
2023/09/06 07:48:01;;;;;;;3.65;2.60;;;21.50;82.50;;;;;;5082844;28;20421;-72
2023/09/06 07:50:27;;;;;;;3.05;2.63;;;21.60;81.40;;;;;;5083492;28;20876;-72
2023/09/06 07:52:54;;;;;;;3.95;2.50;;;21.70;80.10;;;;;;5082152;28;20421;-72
2023/09/06 07:55:21;;;;;;;3.70;2.70;;;21.90;78.70;;;;;;5082395;28;20409;-73
2023/09/06 07:57:49;;;;;;;2.60;2.17;;;22.00;78.00;;;;;;5082149;28;20455;-72
2023/09/06 08:00:17;;;;;;;2.42;2.13;;;22.10;77.40;;;;;;5080972;28;20533;-72
2023/09/06 08:02:43;;;;;;;3.20;2.80;;;22.20;76.90;;;;;;5079070;28;20506;-72
2023/09/06 08:05:10;;;;;;;2.60;2.40;;;22.40;76.00;;;;;;5080533;28;20918;-73
2023/09/06 08:07:37;;;;;;;4.10;2.70;;;22.60;75.10;;;;;;5084023;28;20441;-72
2023/09/06 08:10:08;;;;;;;3.03;2.20;;;22.70;73.70;;;;;;5082346;28;20903;-73
2023/09/06 08:12:35;;;;;;;2.97;2.58;;;22.80;73.70;;;;;;5078629;28;20422;-73
2023/09/06 08:15:04;;;;;;;4.22;2.50;;;22.90;72.80;;;;;;5075400;28;20429;-73
2023/09/06 08:17:31;;;;;;;3.60;2.40;;;23.00;72.00;;;;;;5082943;28;20430;-72
2023/09/06 08:19:58;;;;;;;3.08;2.78;;;23.10;71.60;;;;;;5072967;28;20440;-73
2023/09/06 08:22:24;;;;;;;3.22;2.92;;;23.20;71.50;;;;;;5079051;28;20437;-73
2023/09/06 08:24:51;;;;;;;2.60;2.40;;;23.40;71.30;;;;;;5082116;28;20434;-71
2023/09/06 08:27:18;;;;;;;3.40;2.65;;;23.50;70.20;;;;;;5078751;28;20526;-73
2023/09/06 08:29:45;;;;;;;2.80;2.22;;;23.70;69.90;;;;;;5083784;28;20420;-73
2023/09/06 08:32:13;;;;;;;3.00;2.42;;;23.80;67.40;;;;;;5081572;28;20501;-72
2023/09/06 08:34:39;;;;;;;3.58;2.50;;;23.90;67.50;;;;;;5083749;28;20768;-72
2023/09/06 08:37:07;;;;;;;2.88;2.50;;;24.10;66.70;;;;;;5084374;28;20406;-72
2023/09/06 08:39:34;;;;;;;3.00;2.73;;;24.10;65.50;;;;;;5081092;28;20541;-72
2023/09/06 08:42:06;;;;;;;3.10;2.38;;;24.20;65.50;;;;;;5077589;28;20433;-72
2023/09/06 08:44:33;;;;;;;3.00;2.60;;;24.40;64.90;;;;;;5081726;28;20409;-71
2023/09/06 08:47:03;;;;;;;3.17;2.88;;;24.50;63.70;;;;;;5078559;28;20436;-71
2023/09/06 08:49:32;;;;;;;2.70;2.50;;;24.70;63.20;;;;;;5087255;28;20444;-71
2023/09/06 08:52:01;;;;;;;2.90;2.40;;;24.80;63.00;;;;;;5087810;28;20402;-70
2023/09/06 08:54:29;;;;;;;2.90;2.37;;;24.90;61.80;;;;;;5087047;28;20425;-71
2023/09/06 08:56:57;;;;;;;3.20;2.40;;;25.00;60.00;;;;;;5080314;28;20438;-71
2023/09/06 08:59:25;;;;;;;2.67;2.38;;;25.20;58.50;;;;;;5086821;28;20893;-72
2023/09/06 09:01:52;;;;;;;3.50;2.60;;;25.30;57.40;;;;;;5081363;28;20433;-72
2023/09/06 09:04:18;;;;;;;3.10;2.50;;;25.30;56.50;;;;;;5084494;28;20825;-70
2023/09/06 09:06:46;;;;;;;3.20;2.90;;;25.40;56.20;;;;;;5081674;28;20925;-71
2023/09/06 09:09:15;;;;;;;2.80;2.60;;;25.60;55.80;;;;;;5083595;28;20437;-74
2023/09/06 09:11:45;;;;;;;3.10;2.80;;;25.80;54.80;;;;;;5087395;28;20494;-73
2023/09/06 09:14:20;;;;;;;2.60;2.40;;;26.00;54.90;;;;;;5086097;28;20434;-71
2023/09/06 09:16:53;;;;;;;2.60;2.30;;;26.20;53.50;;;;;;5082622;28;20494;-71
2023/09/06 09:19:21;;;;;;;3.08;2.70;;;26.30;52.30;;;;;;5083979;28;20431;-71
2023/09/06 09:21:50;;;;;;;3.30;2.60;;;26.40;51.90;;;;;;5079378;28;20441;-73
2023/09/06 09:24:25;;;;;;;2.35;2.15;;;26.50;50.20;;;;;;5083645;28;20466;-71
2023/09/06 09:26:52;;;;;;;2.80;2.20;;;26.60;49.60;;;;;;5086312;28;20425;-71
2023/09/06 09:29:19;;;;;;;3.05;2.75;;;26.80;48.40;;;;;;5084155;28;20548;-70
2023/09/06 09:31:46;;;;;;;2.95;2.53;;;26.80;48.00;;;;;;5082579;28;20430;-71
2023/09/06 09:34:13;;;;;;;3.60;2.70;;;26.90;47.90;;;;;;5084936;28;20623;-71
2023/09/06 09:36:40;;;;;;;2.40;2.20;;;27.10;47.40;;;;;;5086040;28;20427;-73
2023/09/06 09:39:10;;;;;;;3.50;2.80;;;27.20;47.40;;;;;;5084729;28;20430;-73
2023/09/06 09:41:42;;;;;;;2.80;2.30;;;27.30;47.10;;;;;;5084473;28;20514;-71
2023/09/06 09:44:15;;;;;;;2.60;2.38;;;27.50;46.90;;;;;;5081706;28;21821;-70
2023/09/06 09:46:44;;;;;;;3.40;2.50;;;27.70;46.90;;;;;;5081669;28;20456;-70
2023/09/06 09:49:11;;;;;;;2.60;2.20;;;27.90;45.90;;;;;;5077337;28;20410;-73
2023/09/06 09:51:39;;;;;;;2.85;2.65;;;28.00;45.60;;;;;;5081941;28;20441;-73
2023/09/06 09:54:08;;;;;;;2.53;2.33;;;28.20;45.10;;;;;;5085107;28;20510;-73
2023/09/06 09:56:37;;;;;;;3.00;2.50;;;28.30;44.60;;;;;;5082303;28;20883;-73
2023/09/06 09:59:05;;;;;;;2.35;2.15;;;28.50;44.60;;;;;;5084738;28;20891;-72
2023/09/06 10:01:32;;;;;;;2.55;2.35;;;28.70;43.60;;;;;;5081627;28;20426;-73
2023/09/06 10:04:00;;;;;;;2.40;2.20;;;28.90;43.40;;;;;;5084370;28;20605;-73
2023/09/06 10:06:31;;;;;;;3.03;2.60;;;29.10;43.20;;;;;;5084121;28;20425;-73
2023/09/06 10:09:00;;;;;;;2.40;2.20;;;29.20;42.70;;;;;;5082780;28;21086;-72
2023/09/06 10:11:32;;;;;;;2.40;2.20;;;29.30;42.10;;;;;;5082220;28;20430;-73
2023/09/06 10:14:02;;;;;;;2.60;2.40;;;29.50;42.20;;;;;;5081465;28;20508;-73
2023/09/06 10:16:29;;;;;;;3.13;2.60;;;29.60;41.00;;;;;;5082793;28;20466;-71
2023/09/06 10:18:56;;;;;;;3.67;2.33;;;29.80;41.40;;;;;;5085858;28;20432;-71
2023/09/06 10:21:23;;;;;;;3.10;2.30;;;29.90;39.60;;;;;;5083085;28;20437;-72
2023/09/06 10:23:50;;;;;;;4.30;2.80;;;30.00;39.00;;;;;;5081543;28;20429;-72
2023/09/06 10:26:26;;;;;;;3.00;2.30;;;30.20;39.40;;;;;;5084884;28;20465;-71
2023/09/06 10:28:59;;;;;;;4.70;2.50;;;30.30;38.50;;;;;;5085714;28;20429;-71
2023/09/06 10:31:36;;;;;;;2.20;2.00;;;30.40;37.70;;;;;;5083555;28;20430;-71
2023/09/06 10:34:03;;;;;;;2.50;2.30;;;30.40;37.50;;;;;;5072860;28;20480;-73
2023/09/06 10:36:30;;;;;;;2.30;2.10;;;30.50;37.10;;;;;;5080993;28;20973;-71
2023/09/06 10:39:18;;;;;;;2.90;2.00;;;30.50;36.30;;;;;;5082716;28;20461;-71
2023/09/06 10:42:16;;;;;;;2.72;2.30;;;30.60;36.10;;;;;;5079247;28;20954;-72
2023/09/06 10:45:09;;;;;;;2.10;2.00;;;30.70;35.20;;;;;;5079891;28;20810;-73
2023/09/06 10:47:36;;;;;;;2.50;2.30;;;30.80;34.40;;;;;;5082970;28;20502;-71
2023/09/06 10:50:21;;;;;;;2.40;2.20;;;30.80;33.80;;;;;;5078362;28;20785;-73
2023/09/06 10:52:52;;;;;;;2.20;2.00;;;30.70;34.40;;;;;;5081818;28;20529;-72
2023/09/06 10:55:21;;;;;;;2.30;2.10;;;30.70;34.60;;;;;;5080604;28;20466;-71
2023/09/06 10:58:08;;;;;;;2.70;2.50;;;30.80;34.00;;;;;;5074469;28;20432;-71
2023/09/06 11:00:36;;;;;;;3.13;2.20;;;30.70;34.50;;;;;;5080657;28;20450;-71
2023/09/06 11:03:17;;;;;;;2.30;2.10;;;30.60;34.20;;;;;;5079315;28;20430;-72
2023/09/06 11:05:51;;;;;;;3.33;2.55;;;30.60;34.40;;;;;;5077904;28;20553;-71
2023/09/06 11:08:29;;;;;;;2.60;2.22;;;30.70;35.40;;;;;;5076084;28;20433;-71
2023/09/06 11:11:04;;;;;;;2.20;2.00;;;30.80;33.60;;;;;;5084637;28;20515;-71
2023/09/06 11:13:33;;;;;;;2.20;2.00;;;30.90;34.40;;;;;;5085297;28;20870;-71
2023/09/06 11:16:01;;;;;;;2.55;2.35;;;30.90;34.20;;;;;;5079325;28;20514;-72
2023/09/06 11:18:28;;;;;;;2.83;2.40;;;31.00;34.30;;;;;;5080502;28;20437;-71
2023/09/06 11:20:55;;;;;;;2.42;2.10;;;31.10;34.00;;;;;;5083540;28;20450;-71
2023/09/06 11:23:23;;;;;;;2.47;2.28;;;31.10;33.90;;;;;;5076037;28;20433;-71
2023/09/06 11:25:58;;;;;;;3.20;2.20;;;30.90;35.00;;;;;;5077113;28;20482;-71
2023/09/06 11:28:28;;;;;;;2.47;2.28;;;30.90;36.00;;;;;;5082751;28;20473;-71
2023/09/06 11:30:55;;;;;;;2.47;2.28;;;31.10;34.50;;;;;;5083757;28;20494;-71
2023/09/06 11:33:31;;;;;;;2.50;2.30;;;31.20;34.30;;;;;;5083821;28;20607;-71
2023/09/06 11:36:03;;;;;;;2.70;2.50;;;31.20;34.90;;;;;;5083077;28;20909;-71
2023/09/06 11:38:33;;;;;;;3.35;2.50;;;31.30;35.40;;;;;;5083412;28;20474;-71
2023/09/06 11:41:03;;;;;;;2.40;2.20;;;31.40;35.20;;;;;;5083401;28;20428;-71
2023/09/06 11:43:31;;;;;;;3.00;2.30;;;31.50;35.70;;;;;;5082145;28;20934;-73
2023/09/06 11:46:03;;;;;;;2.70;2.00;;;31.70;34.70;;;;;;5082896;28;20510;-73
2023/09/06 11:48:34;;;;;;;2.50;2.30;;;31.90;34.90;;;;;;5081455;28;20876;-72
2023/09/06 11:51:08;;;;;;;2.70;2.40;;;31.90;35.00;;;;;;5081856;28;20509;-73
2023/09/06 11:53:38;;;;;;;2.80;2.30;;;31.70;35.20;;;;;;5081574;28;20500;-73
2023/09/06 11:56:08;;;;;;;2.50;2.13;;;31.70;35.60;;;;;;5076583;28;20433;-71
2023/09/06 11:58:42;;;;;;;2.80;2.30;;;31.90;36.10;;;;;;5085151;28;20901;-73
2023/09/06 12:01:11;;;;;;;2.55;2.35;;;32.20;35.80;;;;;;5076567;28;20406;-70
2023/09/06 12:03:45;;;;;;;2.40;2.20;;;32.30;34.50;;;;;;5079584;28;20422;-74
2023/09/06 12:06:12;;;;;;;2.47;2.28;;;32.40;34.10;;;;;;5077941;28;20414;-72
2023/09/06 12:08:40;;;;;;;2.50;2.10;;;32.40;34.40;;;;;;5083126;28;20817;-71
2023/09/06 12:11:10;;;;;;;2.40;2.20;;;32.60;34.20;;;;;;5083077;28;20541;-71
2023/09/06 12:13:38;;;;;;;2.40;2.20;;;32.80;33.50;;;;;;5083587;28;20931;-71
2023/09/06 12:16:07;;;;;;;2.40;2.20;;;33.10;33.40;;;;;;5075714;28;20429;-71
2023/09/06 12:18:35;;;;;;;2.60;2.40;;;33.30;32.50;;;;;;5082693;28;20445;-71
2023/09/06 12:21:04;;;;;;;2.63;2.20;;;33.40;32.10;;;;;;5081917;28;20795;-73
2023/09/06 12:23:33;;;;;;;2.20;2.00;;;33.40;32.30;;;;;;5075258;28;20809;-72
2023/09/06 12:26:01;;;;;;;2.28;2.10;;;33.30;32.20;;;;;;5081151;28;20478;-71
2023/09/06 12:28:29;;;;;;;2.10;2.00;;;33.40;32.60;;;;;;5082921;28;20907;-70
2023/09/06 12:31:01;;;;;;;2.13;1.93;;;33.20;32.10;;;;;;5081668;28;20419;-72
2023/09/06 12:33:28;;;;;;;2.30;2.10;;;33.20;32.60;;;;;;5083321;28;20517;-71
2023/09/06 12:35:59;;;;;;;2.10;2.00;;;33.40;32.00;;;;;;5084175;28;20410;-73
2023/09/06 12:38:28;;;;;;;2.40;2.20;;;33.50;31.50;;;;;;5082625;28;20437;-70
2023/09/06 12:40:54;;;;;;;2.30;2.20;;;33.90;30.90;;;;;;5081568;28;20604;-71
2023/09/06 12:43:21;;;;;;;3.60;1.92;;;34.10;30.00;;;;;;5082280;28;20410;-71
2023/09/06 12:45:48;;;;;;;2.15;1.95;;;34.30;30.00;;;;;;5080602;28;20582;-73
2023/09/06 12:48:16;;;;;;;1.98;1.73;;;34.40;30.00;;;;;;5082203;28;20536;-70
2023/09/06 12:50:42;;;;;;;1.98;1.80;;;34.40;30.10;;;;;;5081468;28;20432;-71
2023/09/06 12:53:09;;;;;;;2.05;1.95;;;34.80;29.90;;;;;;5075333;28;20900;-72
2023/09/06 12:55:38;;;;;;;2.10;2.00;;;34.70;29.40;;;;;;5082491;28;20471;-72